РПИ Екатеринбург

РПИ Екатеринбург

Район полетной информации Екатеринбург (Урал) является структурным подразделением дивизиона VATRUS сети VATSIM.

В зону ответственности района входит воздушное пространство над территориями шести субъектов Российской Федерации: Кировской, Пермской, Курганской, Свердловской и Челябинской областей, а также республики Удмуртия. Воздушное пространство граничит с РПИ центров Москвы, Санкт-Петербурга, Сыктывкара, Тюмени, Новосибирска и Самары, а на юге - с территорией Казахстана.

Контролируемое воздушное пространство составляет 686,6 тысяч кв. километров. В границах ответственности РПИ Екатеринбург семь аэропортов, в их числе четыре международных и три – федерального значения.

Мы в Контакте

Средства связи ОВД / ATC Units:

RU-WSC_FSS - Западная Сибирь-Контроль (USSV, USTV FIRs)

USSV_CTR - Урал-Контроль - РЦ Екатеринбург - 122.200

USSV_1_CTR - Урал-Контроль - Сектор 1 - 122.200

USSV_2_CTR - Урал-Контроль - Сектор 2 (Север) - 131.300

USSV_3_CTR - Урал-Контроль - Сектор 3 - 127.300

USSV_4_CTR - Урал-Контроль - Сектор 4 (Курган) - 119.700

USSV_5_CTR - Урал-Контроль - Сектор 5 (Магнитогорск) - 125.500

USSV_6_CTR - Урал-Контроль - Сектор 6 (Челябинск) - 125.400

USSV_7_CTR - Урал-Контроль - Сектор 7  - 135.100

USSV_8_CTR - Урал-Контроль - Сектор 8 (Пермь) - 133.700

USSV_9_CTR - Урал-Контроль - Сектор 9 (Киров-Север) - 125.200

USSV_10_CTR - Урал-Контроль - Сектор 10 (Киров-Юг) - 132.200

Руководитель РПИ

Andrey Tonkachev

Инструкторы РПИ
Andrey Tonkachev * (Senior Student)
Anton Agaev (Instructor)
Dmitriy Bannov (Instructor)
Ivan Malygin * (Senior Student)
Ivan Skatov (Instructor)
Kirill Rudavin (Instructor)
Maxim Gerasimov (Instructor)
Входит в состав
ЗЦ Екатеринбург

Диспетчеры РПИ

Диспетчер Рейтинг Допуски *
Alexander Shkut Senior Student USSV_CTR *, USCC_APP, USCM_TWR, USPP_APP, USSS_APP, USUU_TWR
Anton Agaev Instructor USSV_CTR
Anton Fedosin Controller USSV_CTR
Artem Smychkov Instructor USSV_CTR
Dmitriy Bannov Instructor USSV_CTR
Ivan Malygin Senior Student USSV_CTR *, USCC_APP, USCM_TWR, USPP_APP, USSS_APP, USUU_TWR
Kirill Rudavin Instructor USSV_CTR
Maxim Gerasimov Instructor USSV_CTR
Maxim Khromtsov Controller USSV_CTR
Vadim Filev Controller USSV_CTR
Aleksey Garmash Student USSS_TWR*, USSS_GND
Alexander Nesterov Student USSS_GND
Alexandr Jaschinsky Student 2 USSS_TWR
Andrey Gridchin Controller USSS_APP
Andrey Shestakov Senior Student USCC_APP, USCM_TWR, USPP_APP, USSS_APP, USUU_TWR
Andrey Tarasov Student 2 USSS_R_APP*
Andrey Tonkachev Senior Student USCC_APP, USCM_TWR, USPP_APP, USSS_APP, USUU_TWR
Artem Tsendrovsky Senior Student USSS_TWR
Daniil Nevesenko Student USSS_GND, USSS_TWR*
Den Starichenko Student USSS_GND
Egor Nosov Student USSS_GND
Eldar Aliev Student 2 USCC_TWR, USPP_TWR, USSS_R_APP*
Igor Shitov Student 2 USSS_TWR
Ivan Gorkov Student USSS_GND
Ivan Zhuravlev Student 2 USSS_TWR
Kirill Ardatov Student 2 USSS_TWR
Kirill Chermeninov Student USSS_GND
Kirill Shabunin Senior Controller USSS_APP
Konstantin Norkin Student 2 USSS_TWR
Maxim Korobko Student 2 USSS_TWR
Mikhail Pompushko Senior Student USCM_TWR
Mikhail Romanov Student USSS_GND
Nika Avdalov Student 2 USCC_TWR, USPP_TWR, USSS_TWR
Stepan Seleznev Student 2 USSS_GND
Vladislav Kepkov Student 2 USCC_TWR
Vsevolod Skryabin Student 2 USSS_TWR!!!

Аэропорты РПИ

ICAO Город Название Погода
USSS Екатеринбург Кольцово USSS 010200Z 04003MPS 360V070 CAVOK 10/06 Q1015 R26R/010060 NOSIG RMK QFE740/0987
USII Ижевск Ижевск
USKK Киров Киров
USUU Курган Курган
USCM Магнитогорск Магнитогорск USCM 010200Z 01002MPS 9999 NSC 14/08 Q1011 R36/090060 NOSIG RMK QFE720
USPP Пермь Пермь USPP 010200Z 07004MPS CAVOK 11/06 Q1014 R03/090060 NOSIG RMK QFE750
USCC Челябинск Челябинск USCC 010200Z 07002MPS CAVOK 13/08 Q1012 R27/000060 NOSIG RMK QFE739